Aviation Digital Data Service (ADDS)

Output produced by METARs form (2113 UTC 06 December 2019)
found at http://www.aviationweather.gov/metar/data/
 
METAR text: ESKN 062050Z 15003KT 9999 BKN010 07/07 Q0990 R26/290195
Conditions at: ESKN (SKAVSTA/STOCKHO , SE) observed 2050 UTC 06 December 2019
Temperature: 7.0°C (45°F)
Dewpoint: 7.0°C (45°F) [RH = 100%]
Pressure (altimeter): 29.23 inches Hg (990.0 mb)
Winds: from the SSE (150 degrees) at 3 MPH (3 knots; 1.5 m/s)
Visibility: 6 or more miles (10+ km)
Ceiling: 1000 feet AGL
Clouds: broken clouds at 1000 feet AGL
Weather: no significant weather observed at this time

METAR text: ESKN 062020Z 20003KT 6000 -RA SCT005 BKN011 07/07 Q0990 R26/290195
Conditions at: ESKN (SKAVSTA/STOCKHO , SE) observed 2020 UTC 06 December 2019
Temperature: 7.0°C (45°F)
Dewpoint: 7.0°C (45°F) [RH = 100%]
Pressure (altimeter): 29.23 inches Hg (990.0 mb)
Winds: from the SSW (200 degrees) at 3 MPH (3 knots; 1.5 m/s)
Visibility: 4 miles ( 6 km)
Ceiling: 1100 feet AGL
Clouds: scattered clouds at 500 feet AGL
broken clouds at 1100 feet AGL
Weather: -RA  (light rain)

METAR text: ESKN 061950Z 22007KT 4900 -RA BR BKN030 07/06 Q0991 R26/290195
Conditions at: ESKN (SKAVSTA/STOCKHO , SE) observed 1950 UTC 06 December 2019
Temperature: 7.0°C (45°F)
Dewpoint: 6.0°C (43°F) [RH = 93%]
Pressure (altimeter): 29.26 inches Hg (991.0 mb)
Winds: from the SW (220 degrees) at 8 MPH (7 knots; 3.6 m/s)
Visibility: 3 miles ( 5 km)
Ceiling: 3000 feet AGL
Clouds: broken clouds at 3000 feet AGL
Weather: -RA BR  (light rain, mist)

METAR text: ESKN 061920Z 22007KT 9999 -RA FEW006 BKN016 07/06 Q0991 R26/290195
Conditions at: ESKN (SKAVSTA/STOCKHO , SE) observed 1920 UTC 06 December 2019
Temperature: 7.0°C (45°F)
Dewpoint: 6.0°C (43°F) [RH = 93%]
Pressure (altimeter): 29.26 inches Hg (991.0 mb)
Winds: from the SW (220 degrees) at 8 MPH (7 knots; 3.6 m/s)
Visibility: 6 or more miles (10+ km)
Ceiling: 1600 feet AGL
Clouds: few clouds at 600 feet AGL
broken clouds at 1600 feet AGL
Weather: -RA  (light rain)

METAR text: ESKN 061850Z 23008KT 9999 -RA BKN026 07/06 Q0991 R26/290195
Conditions at: ESKN (SKAVSTA/STOCKHO , SE) observed 1850 UTC 06 December 2019
Temperature: 7.0°C (45°F)
Dewpoint: 6.0°C (43°F) [RH = 93%]
Pressure (altimeter): 29.26 inches Hg (991.0 mb)
Winds: from the SW (230 degrees) at 9 MPH (8 knots; 4.1 m/s)
Visibility: 6 or more miles (10+ km)
Ceiling: 2600 feet AGL
Clouds: broken clouds at 2600 feet AGL
Weather: -RA  (light rain)

METAR text: ESKN 061820Z 24010KT 9999 BKN029 08/05 Q0991 R26/290195
Conditions at: ESKN (SKAVSTA/STOCKHO , SE) observed 1820 UTC 06 December 2019
Temperature: 8.0°C (46°F)
Dewpoint: 5.0°C (41°F) [RH = 81%]
Pressure (altimeter): 29.26 inches Hg (991.0 mb)
Winds: from the WSW (240 degrees) at 12 MPH (10 knots; 5.1 m/s)
Visibility: 6 or more miles (10+ km)
Ceiling: 2900 feet AGL
Clouds: broken clouds at 2900 feet AGL
Weather: no significant weather observed at this time

METAR text: ESKN 061750Z 23010KT 9999 BKN028 08/05 Q0991 R26/290195
Conditions at: ESKN (SKAVSTA/STOCKHO , SE) observed 1750 UTC 06 December 2019
Temperature: 8.0°C (46°F)
Dewpoint: 5.0°C (41°F) [RH = 81%]
Pressure (altimeter): 29.26 inches Hg (991.0 mb)
Winds: from the SW (230 degrees) at 12 MPH (10 knots; 5.1 m/s)
Visibility: 6 or more miles (10+ km)
Ceiling: 2800 feet AGL
Clouds: broken clouds at 2800 feet AGL
Weather: no significant weather observed at this time

METAR text: ESKN 061720Z 24011KT 9999 BKN031 07/06 Q0991 R26/290195
Conditions at: ESKN (SKAVSTA/STOCKHO , SE) observed 1720 UTC 06 December 2019
Temperature: 7.0°C (45°F)
Dewpoint: 6.0°C (43°F) [RH = 93%]
Pressure (altimeter): 29.26 inches Hg (991.0 mb)
Winds: from the WSW (240 degrees) at 13 MPH (11 knots; 5.7 m/s)
Visibility: 6 or more miles (10+ km)
Ceiling: 3100 feet AGL
Clouds: broken clouds at 3100 feet AGL
Weather: no significant weather observed at this time

METAR text: ESKN 061650Z 23009KT 9999 SCT027 BKN035 07/06 Q0991 R26/290195
Conditions at: ESKN (SKAVSTA/STOCKHO , SE) observed 1650 UTC 06 December 2019
Temperature: 7.0°C (45°F)
Dewpoint: 6.0°C (43°F) [RH = 93%]
Pressure (altimeter): 29.26 inches Hg (991.0 mb)
Winds: from the SW (230 degrees) at 10 MPH (9 knots; 4.6 m/s)
Visibility: 6 or more miles (10+ km)
Ceiling: 3500 feet AGL
Clouds: scattered clouds at 2700 feet AGL
broken clouds at 3500 feet AGL
Weather: no significant weather observed at this time

METAR text: ESKN 061620Z 24011KT 9999 -DZ BKN029 08/06 Q0991 R26/290195
Conditions at: ESKN (SKAVSTA/STOCKHO , SE) observed 1620 UTC 06 December 2019
Temperature: 8.0°C (46°F)
Dewpoint: 6.0°C (43°F) [RH = 87%]
Pressure (altimeter): 29.26 inches Hg (991.0 mb)
Winds: from the WSW (240 degrees) at 13 MPH (11 knots; 5.7 m/s)
Visibility: 6 or more miles (10+ km)
Ceiling: 2900 feet AGL
Clouds: broken clouds at 2900 feet AGL
Weather: -DZ  (light drizzle)

METAR text: ESKN 061550Z 24011KT 9999 SCT023 BKN035 08/07 Q0991 R26/290195
Conditions at: ESKN (SKAVSTA/STOCKHO , SE) observed 1550 UTC 06 December 2019
Temperature: 8.0°C (46°F)
Dewpoint: 7.0°C (45°F) [RH = 93%]
Pressure (altimeter): 29.26 inches Hg (991.0 mb)
Winds: from the WSW (240 degrees) at 13 MPH (11 knots; 5.7 m/s)
Visibility: 6 or more miles (10+ km)
Ceiling: 3500 feet AGL
Clouds: scattered clouds at 2300 feet AGL
broken clouds at 3500 feet AGL
Weather: no significant weather observed at this time

METAR text: ESKN 061520Z 24010KT 9999 SCT019 BKN029 08/06 Q0991 R26/290195
Conditions at: ESKN (SKAVSTA/STOCKHO , SE) observed 1520 UTC 06 December 2019
Temperature: 8.0°C (46°F)
Dewpoint: 6.0°C (43°F) [RH = 87%]
Pressure (altimeter): 29.26 inches Hg (991.0 mb)
Winds: from the WSW (240 degrees) at 12 MPH (10 knots; 5.1 m/s)
Visibility: 6 or more miles (10+ km)
Ceiling: 2900 feet AGL
Clouds: scattered clouds at 1900 feet AGL
broken clouds at 2900 feet AGL
Weather: no significant weather observed at this time

METAR text: ESKN 061450Z 25010KT 9999 BKN032 08/06 Q0990 R26/290195
Conditions at: ESKN (SKAVSTA/STOCKHO , SE) observed 1450 UTC 06 December 2019
Temperature: 8.0°C (46°F)
Dewpoint: 6.0°C (43°F) [RH = 87%]
Pressure (altimeter): 29.23 inches Hg (990.0 mb)
Winds: from the WSW (250 degrees) at 12 MPH (10 knots; 5.1 m/s)
Visibility: 6 or more miles (10+ km)
Ceiling: 3200 feet AGL
Clouds: broken clouds at 3200 feet AGL
Weather: no significant weather observed at this time

METAR text: ESKN 061420Z 26009KT 9999 BKN030 08/06 Q0990 R26/290195
Conditions at: ESKN (SKAVSTA/STOCKHO , SE) observed 1420 UTC 06 December 2019
Temperature: 8.0°C (46°F)
Dewpoint: 6.0°C (43°F) [RH = 87%]
Pressure (altimeter): 29.23 inches Hg (990.0 mb)
Winds: from the W (260 degrees) at 10 MPH (9 knots; 4.6 m/s)
Visibility: 6 or more miles (10+ km)
Ceiling: 3000 feet AGL
Clouds: broken clouds at 3000 feet AGL
Weather: no significant weather observed at this time

METAR text: ESKN 061350Z 27010KT 9999 SCT023 BKN030 08/06 Q0989 R26/290195
Conditions at: ESKN (SKAVSTA/STOCKHO , SE) observed 1350 UTC 06 December 2019
Temperature: 8.0°C (46°F)
Dewpoint: 6.0°C (43°F) [RH = 87%]
Pressure (altimeter): 29.20 inches Hg (989.0 mb)
Winds: from the W (270 degrees) at 12 MPH (10 knots; 5.1 m/s)
Visibility: 6 or more miles (10+ km)
Ceiling: 3000 feet AGL
Clouds: scattered clouds at 2300 feet AGL
broken clouds at 3000 feet AGL
Weather: no significant weather observed at this time

METAR text: ESKN 061320Z 26013KT 9999 BKN028 09/06 Q0989 R26/290195
Conditions at: ESKN (SKAVSTA/STOCKHO , SE) observed 1320 UTC 06 December 2019
Temperature: 9.0°C (48°F)
Dewpoint: 6.0°C (43°F) [RH = 81%]
Pressure (altimeter): 29.20 inches Hg (989.0 mb)
Winds: from the W (260 degrees) at 15 MPH (13 knots; 6.7 m/s)
Visibility: 6 or more miles (10+ km)
Ceiling: 2800 feet AGL
Clouds: broken clouds at 2800 feet AGL
Weather: no significant weather observed at this time

METAR text: ESKN 061250Z 27016KT 9999 BKN025 09/06 Q0989 R26/290195
Conditions at: ESKN (SKAVSTA/STOCKHO , SE) observed 1250 UTC 06 December 2019
Temperature: 9.0°C (48°F)
Dewpoint: 6.0°C (43°F) [RH = 81%]
Pressure (altimeter): 29.20 inches Hg (989.0 mb)
Winds: from the W (270 degrees) at 18 MPH (16 knots; 8.2 m/s)
Visibility: 6 or more miles (10+ km)
Ceiling: 2500 feet AGL
Clouds: broken clouds at 2500 feet AGL
Weather: no significant weather observed at this time

METAR text: ESKN 061220Z 26015KT 9999 SCT022 BKN030 09/07 Q0988 R26/290195
Conditions at: ESKN (SKAVSTA/STOCKHO , SE) observed 1220 UTC 06 December 2019
Temperature: 9.0°C (48°F)
Dewpoint: 7.0°C (45°F) [RH = 87%]
Pressure (altimeter): 29.17 inches Hg (988.0 mb)
Winds: from the W (260 degrees) at 17 MPH (15 knots; 7.7 m/s)
Visibility: 6 or more miles (10+ km)
Ceiling: 3000 feet AGL
Clouds: scattered clouds at 2200 feet AGL
broken clouds at 3000 feet AGL
Weather: no significant weather observed at this time

METAR text: ESKN 061150Z 27015KT 9999 SCT018 BKN030 09/07 Q0988 R26/290195
Conditions at: ESKN (SKAVSTA/STOCKHO , SE) observed 1150 UTC 06 December 2019
Temperature: 9.0°C (48°F)
Dewpoint: 7.0°C (45°F) [RH = 87%]
Pressure (altimeter): 29.17 inches Hg (988.0 mb)
Winds: from the W (270 degrees) at 17 MPH (15 knots; 7.7 m/s)
Visibility: 6 or more miles (10+ km)
Ceiling: 3000 feet AGL
Clouds: scattered clouds at 1800 feet AGL
broken clouds at 3000 feet AGL
Weather: no significant weather observed at this time

METAR text: ESKN 061120Z 26017KT 9999 BKN016 OVC020 09/07 Q0988 R26/290195
Conditions at: ESKN (SKAVSTA/STOCKHO , SE) observed 1120 UTC 06 December 2019
Temperature: 9.0°C (48°F)
Dewpoint: 7.0°C (45°F) [RH = 87%]
Pressure (altimeter): 29.17 inches Hg (988.0 mb)
Winds: from the W (260 degrees) at 20 MPH (17 knots; 8.7 m/s)
Visibility: 6 or more miles (10+ km)
Ceiling: 1600 feet AGL
Clouds: broken clouds at 1600 feet AGL
overcast cloud deck at 2000 feet AGL
Weather: no significant weather observed at this time

METAR text: ESKN 061050Z 26015KT 9999 -DZ BKN016 OVC020 09/07 Q0987 R26/290195
Conditions at: ESKN (SKAVSTA/STOCKHO , SE) observed 1050 UTC 06 December 2019
Temperature: 9.0°C (48°F)
Dewpoint: 7.0°C (45°F) [RH = 87%]
Pressure (altimeter): 29.14 inches Hg (987.0 mb)
Winds: from the W (260 degrees) at 17 MPH (15 knots; 7.7 m/s)
Visibility: 6 or more miles (10+ km)
Ceiling: 1600 feet AGL
Clouds: broken clouds at 1600 feet AGL
overcast cloud deck at 2000 feet AGL
Weather: -DZ  (light drizzle)

METAR text: ESKN 061020Z 26014KT 9999 SCT014 BKN021 09/08 Q0987 R26/290195
Conditions at: ESKN (SKAVSTA/STOCKHO , SE) observed 1020 UTC 06 December 2019
Temperature: 9.0°C (48°F)
Dewpoint: 8.0°C (46°F) [RH = 93%]
Pressure (altimeter): 29.14 inches Hg (987.0 mb)
Winds: from the W (260 degrees) at 16 MPH (14 knots; 7.2 m/s)
Visibility: 6 or more miles (10+ km)
Ceiling: 2100 feet AGL
Clouds: scattered clouds at 1400 feet AGL
broken clouds at 2100 feet AGL
Weather: no significant weather observed at this time

METAR text: ESKN 060950Z 24012KT 9999 SCT006 BKN010 08/08 Q0986 R26/290195
Conditions at: ESKN (SKAVSTA/STOCKHO , SE) observed 0950 UTC 06 December 2019
Temperature: 8.0°C (46°F)
Dewpoint: 8.0°C (46°F) [RH = 100%]
Pressure (altimeter): 29.11 inches Hg (986.0 mb)
Winds: from the WSW (240 degrees) at 14 MPH (12 knots; 6.2 m/s)
Visibility: 6 or more miles (10+ km)
Ceiling: 1000 feet AGL
Clouds: scattered clouds at 600 feet AGL
broken clouds at 1000 feet AGL
Weather: no significant weather observed at this time

METAR text: ESKN 060920Z 24012KT 9999 FEW008 SCT011 08/07 Q0986 R26/290195
Conditions at: ESKN (SKAVSTA/STOCKHO , SE) observed 0920 UTC 06 December 2019
Temperature: 8.0°C (46°F)
Dewpoint: 7.0°C (45°F) [RH = 93%]
Pressure (altimeter): 29.11 inches Hg (986.0 mb)
Winds: from the WSW (240 degrees) at 14 MPH (12 knots; 6.2 m/s)
Visibility: 6 or more miles (10+ km)
Ceiling: at least 12,000 feet AGL
Clouds: few clouds at 800 feet AGL
scattered clouds at 1100 feet AGL
Weather: no significant weather observed at this time

METAR text: ESKN 060850Z 23013KT 9999 -DZ SCT006 BKN008 07/07 Q0986 R26/290195
Conditions at: ESKN (SKAVSTA/STOCKHO , SE) observed 0850 UTC 06 December 2019
Temperature: 7.0°C (45°F)
Dewpoint: 7.0°C (45°F) [RH = 100%]
Pressure (altimeter): 29.11 inches Hg (986.0 mb)
Winds: from the SW (230 degrees) at 15 MPH (13 knots; 6.7 m/s)
Visibility: 6 or more miles (10+ km)
Ceiling: 800 feet AGL
Clouds: scattered clouds at 600 feet AGL
broken clouds at 800 feet AGL
Weather: -DZ  (light drizzle)

METAR text: ESKN 060820Z 22014KT 7000 -DZ SCT006 BKN009 07/07 Q0986 R26/290195
Conditions at: ESKN (SKAVSTA/STOCKHO , SE) observed 0820 UTC 06 December 2019
Temperature: 7.0°C (45°F)
Dewpoint: 7.0°C (45°F) [RH = 100%]
Pressure (altimeter): 29.11 inches Hg (986.0 mb)
Winds: from the SW (220 degrees) at 16 MPH (14 knots; 7.2 m/s)
Visibility: 4 miles ( 7 km)
Ceiling: 900 feet AGL
Clouds: scattered clouds at 600 feet AGL
broken clouds at 900 feet AGL
Weather: -DZ  (light drizzle)

METAR text: ESKN 060750Z 22013KT 5000 BR -DZ SCT006 BKN012 06/06 Q0985 R26/290195
Conditions at: ESKN (SKAVSTA/STOCKHO , SE) observed 0750 UTC 06 December 2019
Temperature: 6.0°C (43°F)
Dewpoint: 6.0°C (43°F) [RH = 100%]
Pressure (altimeter): 29.08 inches Hg (985.0 mb)
Winds: from the SW (220 degrees) at 15 MPH (13 knots; 6.7 m/s)
Visibility: 3 miles ( 5 km)
Ceiling: 1200 feet AGL
Clouds: scattered clouds at 600 feet AGL
broken clouds at 1200 feet AGL
Weather: BR -DZ  (mist, light drizzle)

METAR text: ESKN 060720Z 22011KT 6000 -DZ SCT018 BKN026 06/05 Q0985 R26/290195
Conditions at: ESKN (SKAVSTA/STOCKHO , SE) observed 0720 UTC 06 December 2019
Temperature: 6.0°C (43°F)
Dewpoint: 5.0°C (41°F) [RH = 93%]
Pressure (altimeter): 29.08 inches Hg (985.0 mb)
Winds: from the SW (220 degrees) at 13 MPH (11 knots; 5.7 m/s)
Visibility: 4 miles ( 6 km)
Ceiling: 2600 feet AGL
Clouds: scattered clouds at 1800 feet AGL
broken clouds at 2600 feet AGL
Weather: -DZ  (light drizzle)

METAR text: ESKN 060650Z 21010KT 8000 -DZ BKN018 OVC025 05/05 Q0985 R26/290195
Conditions at: ESKN (SKAVSTA/STOCKHO , SE) observed 0650 UTC 06 December 2019
Temperature: 5.0°C (41°F)
Dewpoint: 5.0°C (41°F) [RH = 100%]
Pressure (altimeter): 29.08 inches Hg (985.0 mb)
Winds: from the SSW (210 degrees) at 12 MPH (10 knots; 5.1 m/s)
Visibility: 5 miles ( 8 km)
Ceiling: 1800 feet AGL
Clouds: broken clouds at 1800 feet AGL
overcast cloud deck at 2500 feet AGL
Weather: -DZ  (light drizzle)

METAR text: ESKN 060620Z 21012KT 6000 BKN020 05/04 Q0985 R26/290195
Conditions at: ESKN (SKAVSTA/STOCKHO , SE) observed 0620 UTC 06 December 2019
Temperature: 5.0°C (41°F)
Dewpoint: 4.0°C (39°F) [RH = 93%]
Pressure (altimeter): 29.08 inches Hg (985.0 mb)
Winds: from the SSW (210 degrees) at 14 MPH (12 knots; 6.2 m/s)
Visibility: 4 miles ( 6 km)
Ceiling: 2000 feet AGL
Clouds: broken clouds at 2000 feet AGL
Weather: no significant weather observed at this time

METAR text: ESKN 060550Z 20011KT 9999 BKN020 05/04 Q0986 R26/290195
Conditions at: ESKN (SKAVSTA/STOCKHO , SE) observed 0550 UTC 06 December 2019
Temperature: 5.0°C (41°F)
Dewpoint: 4.0°C (39°F) [RH = 93%]
Pressure (altimeter): 29.11 inches Hg (986.0 mb)
Winds: from the SSW (200 degrees) at 13 MPH (11 knots; 5.7 m/s)
Visibility: 6 or more miles (10+ km)
Ceiling: 2000 feet AGL
Clouds: broken clouds at 2000 feet AGL
Weather: no significant weather observed at this time

METAR text: ESKN 060520Z 20012KT 9000 -RA BKN022 05/04 Q0986 R26/290195
Conditions at: ESKN (SKAVSTA/STOCKHO , SE) observed 0520 UTC 06 December 2019
Temperature: 5.0°C (41°F)
Dewpoint: 4.0°C (39°F) [RH = 93%]
Pressure (altimeter): 29.11 inches Hg (986.0 mb)
Winds: from the SSW (200 degrees) at 14 MPH (12 knots; 6.2 m/s)
Visibility: 6 miles ( 9 km)
Ceiling: 2200 feet AGL
Clouds: broken clouds at 2200 feet AGL
Weather: -RA  (light rain)

METAR text: ESKN 060450Z 20011KT 9999 FEW009 BKN021 05/04 Q0987 R26/290195
Conditions at: ESKN (SKAVSTA/STOCKHO , SE) observed 0450 UTC 06 December 2019
Temperature: 5.0°C (41°F)
Dewpoint: 4.0°C (39°F) [RH = 93%]
Pressure (altimeter): 29.14 inches Hg (987.0 mb)
Winds: from the SSW (200 degrees) at 13 MPH (11 knots; 5.7 m/s)
Visibility: 6 or more miles (10+ km)
Ceiling: 2100 feet AGL
Clouds: few clouds at 900 feet AGL
broken clouds at 2100 feet AGL
Weather: no significant weather observed at this time

METAR text: ESKN 060420Z 20012KT 9999 -RA FEW008 BKN021 05/04 Q0988 R26/290195
Conditions at: ESKN (SKAVSTA/STOCKHO , SE) observed 0420 UTC 06 December 2019
Temperature: 5.0°C (41°F)
Dewpoint: 4.0°C (39°F) [RH = 93%]
Pressure (altimeter): 29.17 inches Hg (988.0 mb)
Winds: from the SSW (200 degrees) at 14 MPH (12 knots; 6.2 m/s)
Visibility: 6 or more miles (10+ km)
Ceiling: 2100 feet AGL
Clouds: few clouds at 800 feet AGL
broken clouds at 2100 feet AGL
Weather: -RA  (light rain)

METAR text: ESKN 060350Z 21011KT 9999 -RA FEW008 BKN021 05/04 Q0989 R26/290195
Conditions at: ESKN (SKAVSTA/STOCKHO , SE) observed 0350 UTC 06 December 2019
Temperature: 5.0°C (41°F)
Dewpoint: 4.0°C (39°F) [RH = 93%]
Pressure (altimeter): 29.20 inches Hg (989.0 mb)
Winds: from the SSW (210 degrees) at 13 MPH (11 knots; 5.7 m/s)
Visibility: 6 or more miles (10+ km)
Ceiling: 2100 feet AGL
Clouds: few clouds at 800 feet AGL
broken clouds at 2100 feet AGL
Weather: -RA  (light rain)

METAR text: ESKN 060320Z 20012KT 9999 -RA FEW012 BKN021 05/05 Q0989 R26/290195
Conditions at: ESKN (SKAVSTA/STOCKHO , SE) observed 0320 UTC 06 December 2019
Temperature: 5.0°C (41°F)
Dewpoint: 5.0°C (41°F) [RH = 100%]
Pressure (altimeter): 29.20 inches Hg (989.0 mb)
Winds: from the SSW (200 degrees) at 14 MPH (12 knots; 6.2 m/s)
Visibility: 6 or more miles (10+ km)
Ceiling: 2100 feet AGL
Clouds: few clouds at 1200 feet AGL
broken clouds at 2100 feet AGL
Weather: -RA  (light rain)

METAR text: ESKN 060250Z 21011KT 9999 -RA FEW012 BKN026 05/05 Q0990 R26/290195
Conditions at: ESKN (SKAVSTA/STOCKHO , SE) observed 0250 UTC 06 December 2019
Temperature: 5.0°C (41°F)
Dewpoint: 5.0°C (41°F) [RH = 100%]
Pressure (altimeter): 29.23 inches Hg (990.0 mb)
Winds: from the SSW (210 degrees) at 13 MPH (11 knots; 5.7 m/s)
Visibility: 6 or more miles (10+ km)
Ceiling: 2600 feet AGL
Clouds: few clouds at 1200 feet AGL
broken clouds at 2600 feet AGL
Weather: -RA  (light rain)

METAR text: ESKN 060220Z 21011KT 9999 -RA BKN024 05/04 Q0991 R26/290195
Conditions at: ESKN (SKAVSTA/STOCKHO , SE) observed 0220 UTC 06 December 2019
Temperature: 5.0°C (41°F)
Dewpoint: 4.0°C (39°F) [RH = 93%]
Pressure (altimeter): 29.26 inches Hg (991.0 mb)
Winds: from the SSW (210 degrees) at 13 MPH (11 knots; 5.7 m/s)
Visibility: 6 or more miles (10+ km)
Ceiling: 2400 feet AGL
Clouds: broken clouds at 2400 feet AGL
Weather: -RA  (light rain)

METAR text: ESKN 060150Z 21009KT 9999 -RA SCT024 BKN034 05/04 Q0991 R26/290195
Conditions at: ESKN (SKAVSTA/STOCKHO , SE) observed 0150 UTC 06 December 2019
Temperature: 5.0°C (41°F)
Dewpoint: 4.0°C (39°F) [RH = 93%]
Pressure (altimeter): 29.26 inches Hg (991.0 mb)
Winds: from the SSW (210 degrees) at 10 MPH (9 knots; 4.6 m/s)
Visibility: 6 or more miles (10+ km)
Ceiling: 3400 feet AGL
Clouds: scattered clouds at 2400 feet AGL
broken clouds at 3400 feet AGL
Weather: -RA  (light rain)

METAR text: ESKN 060120Z 22011KT 9999 -RA FEW024 BKN035 05/04 Q0992 R26/290095
Conditions at: ESKN (SKAVSTA/STOCKHO , SE) observed 0120 UTC 06 December 2019
Temperature: 5.0°C (41°F)
Dewpoint: 4.0°C (39°F) [RH = 93%]
Pressure (altimeter): 29.29 inches Hg (992.0 mb)
Winds: from the SW (220 degrees) at 13 MPH (11 knots; 5.7 m/s)
Visibility: 6 or more miles (10+ km)
Ceiling: 3500 feet AGL
Clouds: few clouds at 2400 feet AGL
broken clouds at 3500 feet AGL
Weather: -RA  (light rain)

METAR text: ESKN 060050Z 22010KT 9999 -RA BKN030 06/04 Q0992 R26/290095
Conditions at: ESKN (SKAVSTA/STOCKHO , SE) observed 0050 UTC 06 December 2019
Temperature: 6.0°C (43°F)
Dewpoint: 4.0°C (39°F) [RH = 87%]
Pressure (altimeter): 29.29 inches Hg (992.0 mb)
Winds: from the SW (220 degrees) at 12 MPH (10 knots; 5.1 m/s)
Visibility: 6 or more miles (10+ km)
Ceiling: 3000 feet AGL
Clouds: broken clouds at 3000 feet AGL
Weather: -RA  (light rain)

METAR text: ESKN 060020Z 23012KT 9999 -RA BKN026 06/04 Q0993 R26/19//95
Conditions at: ESKN (SKAVSTA/STOCKHO , SE) observed 0020 UTC 06 December 2019
Temperature: 6.0°C (43°F)
Dewpoint: 4.0°C (39°F) [RH = 87%]
Pressure (altimeter): 29.32 inches Hg (993.0 mb)
Winds: from the SW (230 degrees) at 14 MPH (12 knots; 6.2 m/s)
Visibility: 6 or more miles (10+ km)
Ceiling: 2600 feet AGL
Clouds: broken clouds at 2600 feet AGL
Weather: -RA  (light rain)

METAR text: ESKN 052350Z 23011KT 9999 -RA BKN026 06/04 Q0993 R26/19//95
Conditions at: ESKN (SKAVSTA/STOCKHO , SE) observed 2350 UTC 05 December 2019
Temperature: 6.0°C (43°F)
Dewpoint: 4.0°C (39°F) [RH = 87%]
Pressure (altimeter): 29.32 inches Hg (993.0 mb)
Winds: from the SW (230 degrees) at 13 MPH (11 knots; 5.7 m/s)
Visibility: 6 or more miles (10+ km)
Ceiling: 2600 feet AGL
Clouds: broken clouds at 2600 feet AGL
Weather: -RA  (light rain)

METAR text: ESKN 052320Z 23013KT 9999 -RA BKN036 07/03 Q0994 R26/19//95
Conditions at: ESKN (SKAVSTA/STOCKHO , SE) observed 2320 UTC 05 December 2019
Temperature: 7.0°C (45°F)
Dewpoint: 3.0°C (37°F) [RH = 76%]
Pressure (altimeter): 29.35 inches Hg (994.0 mb)
Winds: from the SW (230 degrees) at 15 MPH (13 knots; 6.7 m/s)
Visibility: 6 or more miles (10+ km)
Ceiling: 3600 feet AGL
Clouds: broken clouds at 3600 feet AGL
Weather: -RA  (light rain)

METAR text: ESKN 052250Z 23015KT 9999 BKN038 07/03 Q0994 R26/19//95
Conditions at: ESKN (SKAVSTA/STOCKHO , SE) observed 2250 UTC 05 December 2019
Temperature: 7.0°C (45°F)
Dewpoint: 3.0°C (37°F) [RH = 76%]
Pressure (altimeter): 29.35 inches Hg (994.0 mb)
Winds: from the SW (230 degrees) at 17 MPH (15 knots; 7.7 m/s)
Visibility: 6 or more miles (10+ km)
Ceiling: 3800 feet AGL
Clouds: broken clouds at 3800 feet AGL
Weather: no significant weather observed at this time

METAR text: ESKN 052220Z 23015KT 9999 BKN032 07/03 Q0995 R26/19//95
Conditions at: ESKN (SKAVSTA/STOCKHO , SE) observed 2220 UTC 05 December 2019
Temperature: 7.0°C (45°F)
Dewpoint: 3.0°C (37°F) [RH = 76%]
Pressure (altimeter): 29.38 inches Hg (995.0 mb)
Winds: from the SW (230 degrees) at 17 MPH (15 knots; 7.7 m/s)
Visibility: 6 or more miles (10+ km)
Ceiling: 3200 feet AGL
Clouds: broken clouds at 3200 feet AGL
Weather: no significant weather observed at this time

METAR text: ESKN 052150Z 23014KT 9999 BKN032 07/03 Q0995 R26/19//95
Conditions at: ESKN (SKAVSTA/STOCKHO , SE) observed 2150 UTC 05 December 2019
Temperature: 7.0°C (45°F)
Dewpoint: 3.0°C (37°F) [RH = 76%]
Pressure (altimeter): 29.38 inches Hg (995.0 mb)
Winds: from the SW (230 degrees) at 16 MPH (14 knots; 7.2 m/s)
Visibility: 6 or more miles (10+ km)
Ceiling: 3200 feet AGL
Clouds: broken clouds at 3200 feet AGL
Weather: no significant weather observed at this time

METAR text: ESKN 052120Z 23017KT 9999 BKN030 07/02 Q0996 R26/19//95
Conditions at: ESKN (SKAVSTA/STOCKHO , SE) observed 2120 UTC 05 December 2019
Temperature: 7.0°C (45°F)
Dewpoint: 2.0°C (36°F) [RH = 70%]
Pressure (altimeter): 29.41 inches Hg (996.0 mb)
Winds: from the SW (230 degrees) at 20 MPH (17 knots; 8.7 m/s)
Visibility: 6 or more miles (10+ km)
Ceiling: 3000 feet AGL
Clouds: broken clouds at 3000 feet AGL
Weather: no significant weather observed at this time

METAR text: ESKN 052050Z 24015KT 9999 BKN028 07/02 Q0996 R26/19//95
Conditions at: ESKN (SKAVSTA/STOCKHO , SE) observed 2050 UTC 05 December 2019
Temperature: 7.0°C (45°F)
Dewpoint: 2.0°C (36°F) [RH = 70%]
Pressure (altimeter): 29.41 inches Hg (996.0 mb)
Winds: from the WSW (240 degrees) at 17 MPH (15 knots; 7.7 m/s)
Visibility: 6 or more miles (10+ km)
Ceiling: 2800 feet AGL
Clouds: broken clouds at 2800 feet AGL
Weather: no significant weather observed at this time

METAR text: ESKN 052020Z 24017KT 9999 BKN028 07/02 Q0997 R26/290195
Conditions at: ESKN (SKAVSTA/STOCKHO , SE) observed 2020 UTC 05 December 2019
Temperature: 7.0°C (45°F)
Dewpoint: 2.0°C (36°F) [RH = 70%]
Pressure (altimeter): 29.44 inches Hg (997.0 mb)
Winds: from the WSW (240 degrees) at 20 MPH (17 knots; 8.7 m/s)
Visibility: 6 or more miles (10+ km)
Ceiling: 2800 feet AGL
Clouds: broken clouds at 2800 feet AGL
Weather: no significant weather observed at this time

METAR text: ESKN 051950Z 24017KT 9999 BKN028 07/02 Q0997 R26/290195
Conditions at: ESKN (SKAVSTA/STOCKHO , SE) observed 1950 UTC 05 December 2019
Temperature: 7.0°C (45°F)
Dewpoint: 2.0°C (36°F) [RH = 70%]
Pressure (altimeter): 29.44 inches Hg (997.0 mb)
Winds: from the WSW (240 degrees) at 20 MPH (17 knots; 8.7 m/s)
Visibility: 6 or more miles (10+ km)
Ceiling: 2800 feet AGL
Clouds: broken clouds at 2800 feet AGL
Weather: no significant weather observed at this time

METAR text: ESKN 051920Z 24016KT 9999 BKN027 07/03 Q0997 R26/290195
Conditions at: ESKN (SKAVSTA/STOCKHO , SE) observed 1920 UTC 05 December 2019
Temperature: 7.0°C (45°F)
Dewpoint: 3.0°C (37°F) [RH = 76%]
Pressure (altimeter): 29.44 inches Hg (997.0 mb)
Winds: from the WSW (240 degrees) at 18 MPH (16 knots; 8.2 m/s)
Visibility: 6 or more miles (10+ km)
Ceiling: 2700 feet AGL
Clouds: broken clouds at 2700 feet AGL
Weather: no significant weather observed at this time

METAR text: ESKN 051850Z 23016KT 9999 BKN029 07/02 Q0997 R26/290195
Conditions at: ESKN (SKAVSTA/STOCKHO , SE) observed 1850 UTC 05 December 2019
Temperature: 7.0°C (45°F)
Dewpoint: 2.0°C (36°F) [RH = 70%]
Pressure (altimeter): 29.44 inches Hg (997.0 mb)
Winds: from the SW (230 degrees) at 18 MPH (16 knots; 8.2 m/s)
Visibility: 6 or more miles (10+ km)
Ceiling: 2900 feet AGL
Clouds: broken clouds at 2900 feet AGL
Weather: no significant weather observed at this time

METAR text: ESKN 051820Z 24014KT 9999 BKN028 BKN037 07/02 Q0998 R26/290195
Conditions at: ESKN (SKAVSTA/STOCKHO , SE) observed 1820 UTC 05 December 2019
Temperature: 7.0°C (45°F)
Dewpoint: 2.0°C (36°F) [RH = 70%]
Pressure (altimeter): 29.47 inches Hg (998.0 mb)
Winds: from the WSW (240 degrees) at 16 MPH (14 knots; 7.2 m/s)
Visibility: 6 or more miles (10+ km)
Ceiling: 2800 feet AGL
Clouds: broken clouds at 2800 feet AGL
broken clouds at 3700 feet AGL
Weather: no significant weather observed at this time

METAR text: ESKN 051750Z 24017KT 9999 BKN030 BKN041 07/02 Q0998 R26/190195
Conditions at: ESKN (SKAVSTA/STOCKHO , SE) observed 1750 UTC 05 December 2019
Temperature: 7.0°C (45°F)
Dewpoint: 2.0°C (36°F) [RH = 70%]
Pressure (altimeter): 29.47 inches Hg (998.0 mb)
Winds: from the WSW (240 degrees) at 20 MPH (17 knots; 8.7 m/s)
Visibility: 6 or more miles (10+ km)
Ceiling: 3000 feet AGL
Clouds: broken clouds at 3000 feet AGL
broken clouds at 4100 feet AGL
Weather: no significant weather observed at this time

METAR text: ESKN 051720Z 24018KT 9999 FEW032 07/02 Q0998 R26/190195
Conditions at: ESKN (SKAVSTA/STOCKHO , SE) observed 1720 UTC 05 December 2019
Temperature: 7.0°C (45°F)
Dewpoint: 2.0°C (36°F) [RH = 70%]
Pressure (altimeter): 29.47 inches Hg (998.0 mb)
Winds: from the WSW (240 degrees) at 21 MPH (18 knots; 9.3 m/s)
Visibility: 6 or more miles (10+ km)
Ceiling: at least 12,000 feet AGL
Clouds: few clouds at 3200 feet AGL
Weather: no significant weather observed at this time

METAR text: ESKN 051650Z 24016KT 9999 BKN043 06/03 Q0998 R26/190195
Conditions at: ESKN (SKAVSTA/STOCKHO , SE) observed 1650 UTC 05 December 2019
Temperature: 6.0°C (43°F)
Dewpoint: 3.0°C (37°F) [RH = 81%]
Pressure (altimeter): 29.47 inches Hg (998.0 mb)
Winds: from the WSW (240 degrees) at 18 MPH (16 knots; 8.2 m/s)
Visibility: 6 or more miles (10+ km)
Ceiling: 4300 feet AGL
Clouds: broken clouds at 4300 feet AGL
Weather: no significant weather observed at this time

METAR text: ESKN 051620Z 24017KT 9999 BKN024 06/03 Q0999 R26/190195
Conditions at: ESKN (SKAVSTA/STOCKHO , SE) observed 1620 UTC 05 December 2019
Temperature: 6.0°C (43°F)
Dewpoint: 3.0°C (37°F) [RH = 81%]
Pressure (altimeter): 29.50 inches Hg (999.0 mb)
Winds: from the WSW (240 degrees) at 20 MPH (17 knots; 8.7 m/s)
Visibility: 6 or more miles (10+ km)
Ceiling: 2400 feet AGL
Clouds: broken clouds at 2400 feet AGL
Weather: no significant weather observed at this time

METAR text: ESKN 051550Z 24019KT 9999 -DZ BKN027 07/02 Q0999 R26/190195
Conditions at: ESKN (SKAVSTA/STOCKHO , SE) observed 1550 UTC 05 December 2019
Temperature: 7.0°C (45°F)
Dewpoint: 2.0°C (36°F) [RH = 70%]
Pressure (altimeter): 29.50 inches Hg (999.0 mb)
Winds: from the WSW (240 degrees) at 22 MPH (19 knots; 9.8 m/s)
Visibility: 6 or more miles (10+ km)
Ceiling: 2700 feet AGL
Clouds: broken clouds at 2700 feet AGL
Weather: -DZ  (light drizzle)

METAR text: ESKN 051520Z 24017KT 9999 FEW040 BKN190 06/02 Q0999 R26/190195
Conditions at: ESKN (SKAVSTA/STOCKHO , SE) observed 1520 UTC 05 December 2019
Temperature: 6.0°C (43°F)
Dewpoint: 2.0°C (36°F) [RH = 75%]
Pressure (altimeter): 29.50 inches Hg (999.0 mb)
Winds: from the WSW (240 degrees) at 20 MPH (17 knots; 8.7 m/s)
Visibility: 6 or more miles (10+ km)
Ceiling: 19000 feet AGL
Clouds: few clouds at 4000 feet AGL
broken clouds at 19000 feet AGL
Weather: no significant weather observed at this time

METAR text: ESKN 051450Z 24016KT 9999 SCT039 06/02 Q0999 R26/290195
Conditions at: ESKN (SKAVSTA/STOCKHO , SE) observed 1450 UTC 05 December 2019
Temperature: 6.0°C (43°F)
Dewpoint: 2.0°C (36°F) [RH = 75%]
Pressure (altimeter): 29.50 inches Hg (999.0 mb)
Winds: from the WSW (240 degrees) at 18 MPH (16 knots; 8.2 m/s)
Visibility: 6 or more miles (10+ km)
Ceiling: at least 12,000 feet AGL
Clouds: scattered clouds at 3900 feet AGL
Weather: no significant weather observed at this time

METAR text: ESKN 051420Z 24020KT 9999 FEW030 SCT042 07/02 Q1000 R26/290195
Conditions at: ESKN (SKAVSTA/STOCKHO , SE) observed 1420 UTC 05 December 2019
Temperature: 7.0°C (45°F)
Dewpoint: 2.0°C (36°F) [RH = 70%]
Pressure (altimeter): 29.53 inches Hg (1000.0 mb)
Winds: from the WSW (240 degrees) at 23 MPH (20 knots; 10.3 m/s)
Visibility: 6 or more miles (10+ km)
Ceiling: at least 12,000 feet AGL
Clouds: few clouds at 3000 feet AGL
scattered clouds at 4200 feet AGL
Weather: no significant weather observed at this time

METAR text: ESKN 051350Z 24018KT 9999 SCT039 07/02 Q1000 R26/290195
Conditions at: ESKN (SKAVSTA/STOCKHO , SE) observed 1350 UTC 05 December 2019
Temperature: 7.0°C (45°F)
Dewpoint: 2.0°C (36°F) [RH = 70%]
Pressure (altimeter): 29.53 inches Hg (1000.0 mb)
Winds: from the WSW (240 degrees) at 21 MPH (18 knots; 9.3 m/s)
Visibility: 6 or more miles (10+ km)
Ceiling: at least 12,000 feet AGL
Clouds: scattered clouds at 3900 feet AGL
Weather: no significant weather observed at this time

METAR text: ESKN 051320Z 24018KT 210V280 9999 SCT044 07/03 Q1001 R26/290195
Conditions at: ESKN (SKAVSTA/STOCKHO , SE) observed 1320 UTC 05 December 2019
Temperature: 7.0°C (45°F)
Dewpoint: 3.0°C (37°F) [RH = 76%]
Pressure (altimeter): 29.56 inches Hg (1001.0 mb)
Winds: from the WSW (240 degrees) at 21 MPH (18 knots; 9.3 m/s)
Visibility: 6 or more miles (10+ km)
Ceiling: at least 12,000 feet AGL
Clouds: scattered clouds at 4400 feet AGL
Weather: no significant weather observed at this time

METAR text: ESKN 051250Z 25020KT 9999 FEW028 BKN044 07/03 Q1001 R26/290195
Conditions at: ESKN (SKAVSTA/STOCKHO , SE) observed 1250 UTC 05 December 2019
Temperature: 7.0°C (45°F)
Dewpoint: 3.0°C (37°F) [RH = 76%]
Pressure (altimeter): 29.56 inches Hg (1001.0 mb)
Winds: from the WSW (250 degrees) at 23 MPH (20 knots; 10.3 m/s)
Visibility: 6 or more miles (10+ km)
Ceiling: 4400 feet AGL
Clouds: few clouds at 2800 feet AGL
broken clouds at 4400 feet AGL
Weather: no significant weather observed at this time

METAR text: ESKN 051220Z 25019KT 9999 BKN027 07/03 Q1001 R26/290195
Conditions at: ESKN (SKAVSTA/STOCKHO , SE) observed 1220 UTC 05 December 2019
Temperature: 7.0°C (45°F)
Dewpoint: 3.0°C (37°F) [RH = 76%]
Pressure (altimeter): 29.56 inches Hg (1001.0 mb)
Winds: from the WSW (250 degrees) at 22 MPH (19 knots; 9.8 m/s)
Visibility: 6 or more miles (10+ km)
Ceiling: 2700 feet AGL
Clouds: broken clouds at 2700 feet AGL
Weather: no significant weather observed at this time

METAR text: ESKN 051150Z 24017KT 9999 SCT023 BKN033 07/04 Q1002 R26/290195
Conditions at: ESKN (SKAVSTA/STOCKHO , SE) observed 1150 UTC 05 December 2019
Temperature: 7.0°C (45°F)
Dewpoint: 4.0°C (39°F) [RH = 81%]
Pressure (altimeter): 29.59 inches Hg (1002.0 mb)
Winds: from the WSW (240 degrees) at 20 MPH (17 knots; 8.7 m/s)
Visibility: 6 or more miles (10+ km)
Ceiling: 3300 feet AGL
Clouds: scattered clouds at 2300 feet AGL
broken clouds at 3300 feet AGL
Weather: no significant weather observed at this time

METAR text: ESKN 051120Z 24016KT 9999 BKN021 07/04 Q1002 R26/290195
Conditions at: ESKN (SKAVSTA/STOCKHO , SE) observed 1120 UTC 05 December 2019
Temperature: 7.0°C (45°F)
Dewpoint: 4.0°C (39°F) [RH = 81%]
Pressure (altimeter): 29.59 inches Hg (1002.0 mb)
Winds: from the WSW (240 degrees) at 18 MPH (16 knots; 8.2 m/s)
Visibility: 6 or more miles (10+ km)
Ceiling: 2100 feet AGL
Clouds: broken clouds at 2100 feet AGL
Weather: no significant weather observed at this time

METAR text: ESKN 051050Z 24013KT 9999 SCT024 07/04 Q1002 R26/290195
Conditions at: ESKN (SKAVSTA/STOCKHO , SE) observed 1050 UTC 05 December 2019
Temperature: 7.0°C (45°F)
Dewpoint: 4.0°C (39°F) [RH = 81%]
Pressure (altimeter): 29.59 inches Hg (1002.0 mb)
Winds: from the WSW (240 degrees) at 15 MPH (13 knots; 6.7 m/s)
Visibility: 6 or more miles (10+ km)
Ceiling: at least 12,000 feet AGL
Clouds: scattered clouds at 2400 feet AGL
Weather: no significant weather observed at this time

METAR text: ESKN 051020Z 24013KT 9999 SCT019 07/04 Q1003 R26/290195
Conditions at: ESKN (SKAVSTA/STOCKHO , SE) observed 1020 UTC 05 December 2019
Temperature: 7.0°C (45°F)
Dewpoint: 4.0°C (39°F) [RH = 81%]
Pressure (altimeter): 29.62 inches Hg (1003.0 mb)
Winds: from the WSW (240 degrees) at 15 MPH (13 knots; 6.7 m/s)
Visibility: 6 or more miles (10+ km)
Ceiling: at least 12,000 feet AGL
Clouds: scattered clouds at 1900 feet AGL
Weather: no significant weather observed at this time

METAR text: ESKN 050950Z 24013KT 9999 SCT021 SCT043 07/04 Q1003 R26/290195
Conditions at: ESKN (SKAVSTA/STOCKHO , SE) observed 0950 UTC 05 December 2019
Temperature: 7.0°C (45°F)
Dewpoint: 4.0°C (39°F) [RH = 81%]
Pressure (altimeter): 29.62 inches Hg (1003.0 mb)
Winds: from the WSW (240 degrees) at 15 MPH (13 knots; 6.7 m/s)
Visibility: 6 or more miles (10+ km)
Ceiling: at least 12,000 feet AGL
Clouds: scattered clouds at 2100 feet AGL
scattered clouds at 4300 feet AGL
Weather: no significant weather observed at this time

METAR text: ESKN 050920Z 23014KT 9999 SCT020 BKN041 07/04 Q1003 R26/290195
Conditions at: ESKN (SKAVSTA/STOCKHO , SE) observed 0920 UTC 05 December 2019
Temperature: 7.0°C (45°F)
Dewpoint: 4.0°C (39°F) [RH = 81%]
Pressure (altimeter): 29.62 inches Hg (1003.0 mb)
Winds: from the SW (230 degrees) at 16 MPH (14 knots; 7.2 m/s)
Visibility: 6 or more miles (10+ km)
Ceiling: 4100 feet AGL
Clouds: scattered clouds at 2000 feet AGL
broken clouds at 4100 feet AGL
Weather: no significant weather observed at this time

Forecast for: AMD
Text: TAF AMD ESKN 062015Z 0620/0718 19008KT 9999 SCT025 BKN035
Forecast period: 2000 UTC 06 December 2019 to 0800 UTC 07 December 2019
Forecast type: FROM: standard forecast or significant change
Winds: from the S (190 degrees) at 9 MPH (8 knots; 4.1 m/s)
Visibility: 6 or more miles 10+ km)
Ceiling: 3500 feet AGL
Clouds: scattered clouds at 2500 feet AGL
broken clouds at 3500 feet AGL
Weather: no significant weather forecast for this period
Text: TEMPO 0620/0718 2500 RA BKN009
Forecast period: 2000 UTC 06 December 2019 to 1800 UTC 07 December 2019
Forecast type: TEMPORARY: The following changes expected for less than half the time period
Visibility: 1.55 miles (2.49 km)
Ceiling: 900 feet AGL
Clouds: broken clouds at 900 feet AGL
Weather: RA  (moderate rain)
Text: BECMG 0708/0710 25012KT
Forecast period: 0800 to 1000 UTC 07 December 2019
Forecast type: BECOMING: Conditions expected to become as follows by 1000 UTC 07 December 2019
Winds: from the WSW (250 degrees) at 14 MPH (12 knots; 6.2 m/s)
Visibility: 6 or more miles 10+ km)
Ceiling: 3500 feet AGL
Clouds: scattered clouds at 2500 feet AGL
broken clouds at 3500 feet AGL
Weather: no significant weather forecast for this period
Text: BECMG 0710/0712 31012KT
Forecast period: 1000 to 1800 UTC 07 December 2019
Forecast type: BECOMING: Conditions expected to become as follows by 1200 UTC 07 December 2019
Winds: from the NW (310 degrees) at 14 MPH (12 knots; 6.2 m/s)
Visibility: 6 or more miles 10+ km)
Ceiling: 3500 feet AGL
Clouds: scattered clouds at 2500 feet AGL
broken clouds at 3500 feet AGL
Weather: no significant weather forecast for this period